Time;durP1;ratioP1;P1;durP2;ratioP2;P2;SDS_P1;SDS_P2;PMS_P1;PMS_P2;Temp;Humidity;BMP_temperature;BMP_pressure;BME280_temperature;BME280_humidity;BME280_pressure;Samples;Min_cycle;Max_cycle;Signal;HPM_P1;HPM_P2
2021/07/11 18:07:26;;;;;;;197.55;155.32;;;;;;;;;;3574085;39;20564;-72
2021/07/11 18:09:52;;;;;;;169.75;136.43;;;;;;;;;;3561560;39;20564;-70
2021/07/11 18:12:17;;;;;;;142.40;117.35;;;;;;;;;;3576515;39;20031;-71
2021/07/11 18:14:43;;;;;;;127.05;102.68;;;;;;;;;;3595240;23;20129;-88
2021/07/11 18:17:09;;;;;;;110.80;89.90;;;;;;;;;;3576339;39;20041;-84
2021/07/11 18:19:34;;;;;;;92.25;76.05;;;;;;;;;;3570044;40;20049;-85
2021/07/11 18:22:00;;;;;;;89.63;72.15;;;;;;;;;;3578677;40;20035;-84
2021/07/11 18:24:25;;;;;;;233.15;161.52;;;;;;;;;;3578621;40;20040;-86
2021/07/11 18:32:59;;;;;;;2.03;0.95;;;;;;;;;;3593748;39;20122;-75
2021/07/11 18:35:25;;;;;;;1.60;1.05;;;;;;;;;;3570999;39;20068;-74
2021/07/11 18:37:50;;;;;;;3.60;1.40;;;;;;;;;;3555890;40;20130;-73
2021/07/11 18:40:17;;;;;;;1.77;0.95;;;;;;;;;;3557545;40;20037;-73
2021/07/11 18:42:43;;;;;;;2.92;1.00;;;;;;;;;;3561404;40;20292;-73
2021/07/11 18:45:11;;;;;;;1.27;1.00;;;;;;;;;;3559778;40;20837;-73
2021/07/11 18:47:38;;;;;;;1.20;1.10;;;;;;;;;;3522236;40;132327;-75
2021/07/11 18:49:57;;;;;;;5.47;1.60;;;;;;;;;;1481962;39;20440;-73
2021/07/11 18:50:58;;;;;;;2.35;1.45;;;;;;;;;;1434114;40;21542;-74
2021/07/11 18:51:59;;;;;;;1.65;1.13;;;;;;;;;;1445443;40;20083;-73
2021/07/11 18:53:00;;;;;;;2.50;1.30;;;;;;;;;;1437286;40;20043;-74
2021/07/11 18:54:00;;;;;;;2.50;1.20;;;;;;;;;;1425627;41;20060;-74
2021/07/11 18:55:04;;;;;;;3.63;1.20;;;;;;;;;;1431815;41;20049;-73
2021/07/11 18:56:06;;;;;;;2.20;1.25;;;;;;;;;;1432966;41;20049;-74
2021/07/11 18:57:07;;;;;;;;;;;;;;;;;;1428183;41;20213;-74
2021/07/11 18:58:07;;;;;;;1.30;1.00;;;;;;;;;;1424107;41;19990;-73
2021/07/11 18:59:39;;;;;;;4.85;1.10;;;;;;;;;;1422788;41;20525;-77
2021/07/11 19:00:40;;;;;;;3.83;1.10;;;;;;;;;;1421906;41;20077;-76
2021/07/11 19:01:41;;;;;;;2.33;1.10;;;;;;;;;;1427661;41;20054;-77
2021/07/11 19:02:43;;;;;;;6.50;1.25;;;;;;;;;;1421089;41;20045;-76
2021/07/11 19:03:43;;;;;;;;;;;;;;;;;;1409561;41;20143;-77
2021/07/11 19:04:44;;;;;;;3.03;1.25;;;;;;;;;;1409453;41;19941;-77
2021/07/11 19:05:45;;;;;;;4.28;0.93;;;;;;;;;;1413226;41;20055;-77
2021/07/11 19:06:46;;;;;;;3.22;1.15;;;;;;;;;;1415400;41;20043;-78
2021/07/11 19:07:46;;;;;;;;;;;;;;;;;;1411662;42;20416;-77
2021/07/11 19:08:47;;;;;;;1.98;1.10;;;;;;;;;;1415658;41;19957;-77
2021/07/11 19:09:48;;;;;;;2.55;1.17;;;;;;;;;;1421754;41;20213;-76
2021/07/11 19:10:48;;;;;;;11.93;1.58;;;;;;;;;;1415132;41;20451;-77
2021/07/11 19:11:49;;;;;;;7.03;1.00;;;;;;;;;;1423485;41;20143;-76
2021/07/11 19:12:49;;;;;;;27.05;1.55;;;;;;;;;;1422804;41;20055;-77
2021/07/11 19:13:50;;;;;;;43.83;1.92;;;;;;;;;;1416365;41;20055;-76
2021/07/11 19:14:51;;;;;;;144.20;3.65;;;;;;;;;;1419891;41;20047;-75
2021/07/11 19:15:51;;;;;;;4.07;1.10;;;;;;;;;;1411800;41;21073;-75
2021/07/11 19:16:52;;;;;;;5.45;1.10;;;;;;;;;;1422870;41;20532;-75
2021/07/11 19:17:53;;;;;;;8.88;1.25;;;;;;;;;;1420719;41;20035;-76
2021/07/11 19:18:53;;;;;;;2.63;1.02;;;;;;;;;;1421397;41;20058;-76
2021/07/11 19:19:54;;;;;;;5.07;1.50;;;;;;;;;;1422949;41;20434;-76
2021/07/11 19:20:54;;;;;;;6.07;1.45;;;;;;;;;;1421164;41;20186;-76
2021/07/11 19:21:55;;;;;;;2.90;1.23;;;;;;;;;;1422935;41;20201;-76
2021/07/11 19:22:59;;;;;;;3.40;1.48;;;;;;;;;;1424079;41;20070;-75
2021/07/11 19:24:00;;;;;;;2.05;1.23;;;;;;;;;;1410697;41;20618;-76
2021/07/11 19:25:03;;;;;;;3.42;1.17;;;;;;;;;;1419511;41;20050;-76
2021/07/11 19:26:04;;;;;;;3.05;1.50;;;;;;;;;;1416813;41;20047;-76
2021/07/11 19:27:06;;;;;;;3.78;0.85;;;;;;;;;;1417777;41;20047;-76
2021/07/11 19:28:07;;;;;;;15.07;1.30;;;;;;;;;;1419306;41;20065;-75
2021/07/11 19:29:08;;;;;;;4.00;1.15;;;;;;;;;;1415927;41;20307;-75
2021/07/11 19:30:10;;;;;;;22.45;1.48;;;;;;;;;;1413214;41;20055;-77
2021/07/11 19:31:11;;;;;;;299.70;7.00;;;;;;;;;;1415035;41;20059;-75
2021/07/11 19:32:11;;;;;;;236.48;5.80;;;;;;;;;;1417769;41;20158;-74
2021/07/11 19:33:12;;;;;;;684.38;16.05;;;;;;;;;;1421881;41;20069;-75
2021/07/11 19:34:13;;;;;;;19.48;1.17;;;;;;;;;;1421652;41;20164;-75
2021/07/11 19:35:17;;;;;;;1.73;0.93;;;;;;;;;;1427299;41;20442;-77
2021/07/11 19:36:18;;;;;;;5.85;1.10;;;;;;;;;;1425574;41;20034;-75
2021/07/11 19:37:23;;;;;;;5.05;1.40;;;;;;;;;;1430560;41;20637;-74
2021/07/11 19:38:24;;;;;;;2.92;1.02;;;;;;;;;;1432259;41;20072;-74
2021/07/11 19:39:26;;;;;;;6.75;1.35;;;;;;;;;;1422782;41;20105;-75
2021/07/11 19:40:28;;;;;;;3.28;1.20;;;;;;;;;;1426889;41;20045;-75
2021/07/11 19:41:28;;;;;;;2.70;1.00;;;;;;;;;;1426087;41;20149;-75
2021/07/11 19:42:29;;;;;;;10.25;1.30;;;;;;;;;;1425197;41;20050;-75
2021/07/11 19:43:29;;;;;;;532.10;10.00;;;;;;;;;;1425896;41;20054;-74
2021/07/11 19:44:30;;;;;;;365.03;7.73;;;;;;;;;;1420715;41;20787;-75
2021/07/11 19:45:31;;;;;;;31.63;1.35;;;;;;;;;;1425448;41;20294;-75
2021/07/11 19:46:31;;;;;;;51.95;1.73;;;;;;;;;;1423974;41;20046;-75
2021/07/11 19:47:32;;;;;;;128.48;2.78;;;;;;;;;;1426166;41;20054;-75
2021/07/11 19:48:45;;;;;;;80.45;1.90;;;;;;;;;;1418886;41;20323;-75
2021/07/11 19:49:46;;;;;;;49.80;1.60;;;;;;;;;;1429340;41;20045;-75
2021/07/11 19:50:47;;;;;;;78.07;2.08;;;;;;;;;;1428387;41;20045;-75
2021/07/11 19:51:48;;;;;;;56.30;1.38;;;;;;;;;;1427854;41;20061;-77
2021/07/11 19:52:49;;;;;;;144.02;2.75;;;;;;;;;;1429734;41;20172;-76
2021/07/11 19:53:49;;;;;;;248.43;4.35;;;;;;;;;;1426155;41;20052;-76
2021/07/11 19:54:50;;;;;;;429.70;6.88;;;;;;;;;;1425371;41;20563;-76
2021/07/11 19:55:51;;;;;;;289.50;5.53;;;;;;;;;;1426184;41;20094;-76
2021/07/11 19:56:51;;;;;;;209.40;3.85;;;;;;;;;;1426629;41;20113;-75
2021/07/11 19:57:52;;;;;;;273.33;5.10;;;;;;;;;;1423925;41;20372;-75
2021/07/11 19:58:53;;;;;;;563.38;9.57;;;;;;;;;;1420473;41;20203;-75
2021/07/11 19:59:53;;;;;;;304.20;8.05;;;;;;;;;;1426843;41;20574;-75
2021/07/11 20:00:56;;;;;;;232.20;5.47;;;;;;;;;;1429904;41;20167;-75
2021/07/11 20:01:57;;;;;;;409.13;7.85;;;;;;;;;;1433049;41;20400;-74
2021/07/11 20:02:57;;;;;;;486.10;9.90;;;;;;;;;;1436590;41;20380;-75
2021/07/11 20:03:58;;;;;;;300.50;5.80;;;;;;;;;;1438225;41;20072;-75
2021/07/11 20:04:58;;;;;;;481.80;8.68;;;;;;;;;;1432795;41;20485;-74
2021/07/11 20:05:59;;;;;;;258.85;5.00;;;;;;;;;;1428706;41;20129;-74
2021/07/11 20:06:59;;;;;;;280.65;4.85;;;;;;;;;;1407350;41;452962;-75
2021/07/11 20:08:00;;;;;;;315.30;5.88;;;;;;;;;;1426627;41;20317;-75
2021/07/11 20:09:02;;;;;;;408.67;8.40;;;;;;;;;;1426645;41;20033;-76
2021/07/11 20:10:07;;;;;;;401.42;8.73;;;;;;;;;;1429656;41;21408;-75
2021/07/11 20:11:08;;;;;;;148.75;3.05;;;;;;;;;;1412650;41;20043;-80
2021/07/11 20:12:08;;;;;;;140.17;2.90;;;;;;;;;;1406986;41;20041;-75
2021/07/11 20:13:10;;;;;;;79.88;2.47;;;;;;;;;;1416876;41;20359;-75
2021/07/11 20:14:10;;;;;;;;;;;;;;;;;;1410988;41;20509;-76
2021/07/11 20:15:11;;;;;;;184.98;4.55;;;;;;;;;;1413244;41;19952;-76
2021/07/11 20:16:11;;;;;;;111.78;2.15;;;;;;;;;;1421508;41;20283;-76
2021/07/11 20:17:12;;;;;;;261.33;4.72;;;;;;;;;;1420558;41;20060;-78
2021/07/11 20:18:13;;;;;;;412.63;7.47;;;;;;;;;;1418551;41;20098;-76
2021/07/11 20:19:13;;;;;;;496.63;10.43;;;;;;;;;;1420034;41;20055;-75
2021/07/11 20:20:14;;;;;;;496.67;7.93;;;;;;;;;;1429025;41;20038;-76
2021/07/11 20:21:15;;;;;;;324.85;5.22;;;;;;;;;;1423127;41;20310;-75
2021/07/11 20:22:15;;;;;;;148.32;3.33;;;;;;;;;;1429840;41;20266;-76
2021/07/11 20:23:16;;;;;;;386.63;7.10;;;;;;;;;;1434720;41;20105;-77
2021/07/11 20:24:17;;;;;;;278.90;5.60;;;;;;;;;;1429842;41;20242;-76
2021/07/11 20:25:17;;;;;;;548.33;11.55;;;;;;;;;;1429393;41;20697;-77
2021/07/11 20:26:19;;;;;;;172.75;4.00;;;;;;;;;;1430615;41;20133;-76
2021/07/11 20:27:19;;;;;;;585.72;11.05;;;;;;;;;;1427048;41;20107;-76
2021/07/11 20:28:20;;;;;;;301.85;6.90;;;;;;;;;;1427281;41;20030;-75
2021/07/11 20:29:20;;;;;;;354.70;9.07;;;;;;;;;;1428748;41;20042;-76
2021/07/11 20:30:21;;;;;;;202.43;4.40;;;;;;;;;;1428848;41;20053;-76
2021/07/11 20:31:22;;;;;;;106.63;2.75;;;;;;;;;;1429668;41;20048;-74
2021/07/11 20:32:22;;;;;;;42.42;1.77;;;;;;;;;;1427275;41;20042;-75
2021/07/11 20:33:23;;;;;;;6.55;1.08;;;;;;;;;;1427266;41;20152;-76
2021/07/11 20:34:23;;;;;;;9.60;0.90;;;;;;;;;;1429426;41;20316;-76
2021/07/11 20:35:24;;;;;;;2.30;1.05;;;;;;;;;;1428776;41;20319;-76
2021/07/11 20:36:24;;;;;;;1.85;1.17;;;;;;;;;;1428283;41;20046;-76
2021/07/11 20:37:25;;;;;;;4.78;1.20;;;;;;;;;;1430590;41;20469;-75
2021/07/11 20:38:26;;;;;;;2.28;0.90;;;;;;;;;;1429437;41;20147;-75
2021/07/11 20:39:27;;;;;;;8.75;0.90;;;;;;;;;;1431771;41;20418;-74
2021/07/11 20:40:28;;;;;;;3.63;0.77;;;;;;;;;;1441329;41;20041;-74
2021/07/11 20:41:28;;;;;;;2.63;0.90;;;;;;;;;;1442072;41;20032;-74
2021/07/11 20:42:29;;;;;;;3.80;0.73;;;;;;;;;;1442698;40;20322;-76
2021/07/11 20:43:29;;;;;;;12.27;1.10;;;;;;;;;;1456298;40;20058;-74
2021/07/11 20:44:30;;;;;;;2.03;1.02;;;;;;;;;;1451734;40;20084;-75
2021/07/11 20:45:33;;;;;;;13.40;1.40;;;;;;;;;;1452211;40;20638;-77
2021/07/11 20:46:34;;;;;;;222.63;7.95;;;;;;;;;;1445524;40;20201;-75
2021/07/11 20:47:35;;;;;;;370.02;7.43;;;;;;;;;;1447532;40;20210;-76
2021/07/11 20:48:36;;;;;;;35.38;1.60;;;;;;;;;;1453551;40;20348;-75
2021/07/11 20:49:37;;;;;;;611.45;13.10;;;;;;;;;;1458587;40;20568;-75
2021/07/11 20:50:38;;;;;;;506.60;10.65;;;;;;;;;;1453653;40;20086;-75
2021/07/11 20:51:39;;;;;;;243.75;5.25;;;;;;;;;;1446969;40;20294;-75
2021/07/11 20:52:40;;;;;;;5.00;1.20;;;;;;;;;;1441715;40;20252;-76
2021/07/11 20:53:41;;;;;;;146.80;4.00;;;;;;;;;;1443349;41;20217;-73
2021/07/11 20:54:41;;;;;;;447.05;10.60;;;;;;;;;;1443834;40;20202;-73
2021/07/11 20:55:42;;;;;;;329.63;7.43;;;;;;;;;;1440816;40;20446;-74
2021/07/11 20:56:43;;;;;;;313.95;9.80;;;;;;;;;;1443293;40;20099;-74
2021/07/11 20:57:44;;;;;;;6.38;1.20;;;;;;;;;;1449279;40;20109;-74
2021/07/11 20:58:46;;;;;;;3.50;1.10;;;;;;;;;;1452313;40;20145;-75
2021/07/11 20:59:47;;;;;;;4.65;1.25;;;;;;;;;;1448970;40;20091;-74
2021/07/11 21:00:47;;;;;;;2.50;1.10;;;;;;;;;;1448715;40;20040;-73
2021/07/11 21:01:50;;;;;;;7.10;1.60;;;;;;;;;;1449293;40;20441;-74
2021/07/11 21:02:50;;;;;;;5.95;1.50;;;;;;;;;;1451618;40;20035;-75
2021/07/11 21:03:50;;;;;;;6.13;1.67;;;;;;;;;;1451051;40;20035;-75
2021/07/11 21:04:51;;;;;;;48.17;2.83;;;;;;;;;;1454251;40;21159;-74
2021/07/11 21:05:52;;;;;;;1142.30;27.08;;;;;;;;;;1451885;40;20031;-74
2021/07/11 21:06:52;;;;;;;808.63;16.52;;;;;;;;;;1453494;40;20079;-76
2021/07/11 21:07:53;;;;;;;612.80;10.43;;;;;;;;;;1451165;40;20043;-75
2021/07/11 21:08:53;;;;;;;542.67;8.82;;;;;;;;;;1441698;41;20056;-77
2021/07/11 21:09:57;;;;;;;345.63;6.90;;;;;;;;;;1445994;40;20039;-76
2021/07/11 21:10:58;;;;;;;307.13;6.35;;;;;;;;;;1446974;40;20047;-75
2021/07/11 21:11:58;;;;;;;257.93;4.57;;;;;;;;;;1444931;40;20200;-75
2021/07/11 21:12:59;;;;;;;475.23;9.70;;;;;;;;;;1450278;40;20255;-75
2021/07/11 21:14:00;;;;;;;616.75;13.27;;;;;;;;;;1455753;40;20198;-74
2021/07/11 21:15:00;;;;;;;267.70;6.40;;;;;;;;;;1451166;40;20074;-74
2021/07/11 21:16:01;;;;;;;219.18;4.75;;;;;;;;;;1448166;40;20040;-75
2021/07/11 21:17:02;;;;;;;161.93;3.83;;;;;;;;;;1447630;40;20298;-75
2021/07/11 21:18:03;;;;;;;257.65;5.63;;;;;;;;;;1443998;41;20152;-74
2021/07/11 21:19:04;;;;;;;299.35;6.35;;;;;;;;;;1443698;41;20052;-74
2021/07/11 21:20:05;;;;;;;43.72;1.60;;;;;;;;;;1444615;40;20037;-74
2021/07/11 21:21:05;;;;;;;100.28;3.03;;;;;;;;;;1433899;41;21040;-74
2021/07/11 21:22:06;;;;;;;39.35;1.80;;;;;;;;;;1425104;41;20054;-75
2021/07/11 21:23:07;;;;;;;19.95;1.65;;;;;;;;;;1420012;41;20066;-76
2021/07/11 21:24:08;;;;;;;29.52;2.03;;;;;;;;;;1427884;41;20049;-77
2021/07/11 21:25:09;;;;;;;37.22;2.03;;;;;;;;;;1428309;41;20050;-77
2021/07/11 21:26:09;;;;;;;5.28;1.52;;;;;;;;;;1429700;41;20506;-75
2021/07/11 21:27:10;;;;;;;8.68;1.98;;;;;;;;;;1422372;41;20156;-74
2021/07/11 21:28:10;;;;;;;99.93;3.43;;;;;;;;;;1419358;41;20047;-75
2021/07/11 21:29:11;;;;;;;341.58;9.75;;;;;;;;;;1421531;41;20027;-75
2021/07/11 21:30:12;;;;;;;361.00;10.80;;;;;;;;;;1422299;41;20042;-74
2021/07/11 21:31:12;;;;;;;509.45;12.98;;;;;;;;;;1419678;41;20039;-74
2021/07/11 21:32:13;;;;;;;302.25;9.07;;;;;;;;;;1421391;41;20075;-74
2021/07/11 21:33:13;;;;;;;176.32;5.88;;;;;;;;;;1424289;41;20042;-77
2021/07/11 21:34:14;;;;;;;108.10;3.10;;;;;;;;;;1424888;41;20049;-75
2021/07/11 21:35:15;;;;;;;197.80;7.33;;;;;;;;;;1424809;41;20042;-75
2021/07/11 21:36:16;;;;;;;63.72;2.47;;;;;;;;;;1422330;41;20105;-76
2021/07/11 21:37:16;;;;;;;204.52;5.20;;;;;;;;;;1423264;41;20695;-75
2021/07/11 21:38:17;;;;;;;379.50;7.93;;;;;;;;;;1423705;41;20045;-76
2021/07/11 21:39:17;;;;;;;402.73;8.27;;;;;;;;;;1428301;41;20042;-75
2021/07/11 21:40:18;;;;;;;489.35;9.05;;;;;;;;;;1428013;41;20140;-75
2021/07/11 21:41:18;;;;;;;507.08;9.15;;;;;;;;;;1426173;41;20193;-75
2021/07/11 21:42:19;;;;;;;453.07;7.93;;;;;;;;;;1427012;41;20047;-75
2021/07/11 21:43:19;;;;;;;222.17;4.93;;;;;;;;;;1428961;41;20347;-75
2021/07/11 21:44:20;;;;;;;327.08;8.07;;;;;;;;;;1424166;41;20038;-75
2021/07/11 21:45:21;;;;;;;278.52;5.50;;;;;;;;;;1426520;41;20065;-75
2021/07/11 21:46:24;;;;;;;346.55;5.75;;;;;;;;;;1423127;41;20479;-75
2021/07/11 21:47:25;;;;;;;356.63;6.63;;;;;;;;;;1419473;41;20184;-76
2021/07/11 21:48:26;;;;;;;218.40;4.15;;;;;;;;;;1422309;41;20038;-75
2021/07/11 21:49:26;;;;;;;68.55;2.15;;;;;;;;;;1423993;41;20051;-74
2021/07/11 21:50:27;;;;;;;167.45;3.97;;;;;;;;;;1401655;41;104969;-76
2021/07/11 21:51:27;;;;;;;170.87;3.27;;;;;;;;;;1416600;41;20262;-74
2021/07/11 21:52:27;;;;;;;245.18;4.30;;;;;;;;;;1415329;41;20060;-75
2021/07/11 21:53:28;;;;;;;345.33;7.32;;;;;;;;;;1430500;41;20627;-76
2021/07/11 21:54:29;;;;;;;466.75;7.50;;;;;;;;;;1432703;41;20052;-76
2021/07/11 21:55:29;;;;;;;245.77;4.93;;;;;;;;;;1432813;41;20172;-75
2021/07/11 21:56:30;;;;;;;101.65;2.63;;;;;;;;;;1429179;41;20276;-76
2021/07/11 21:57:31;;;;;;;369.75;6.32;;;;;;;;;;1428423;41;20049;-76
2021/07/11 21:58:32;;;;;;;344.33;5.70;;;;;;;;;;1424624;41;20053;-74
2021/07/11 21:59:32;;;;;;;246.40;5.93;;;;;;;;;;1423836;41;20042;-75
2021/07/11 22:00:32;;;;;;;262.27;5.45;;;;;;;;;;1429191;41;20127;-75
2021/07/11 22:01:35;;;;;;;287.98;6.47;;;;;;;;;;1425077;41;20529;-75
2021/07/11 22:02:36;;;;;;;246.77;5.07;;;;;;;;;;1423097;41;20208;-75
2021/07/11 22:03:36;;;;;;;196.93;3.83;;;;;;;;;;1426407;41;20326;-76
2021/07/11 22:04:37;;;;;;;152.27;3.50;;;;;;;;;;1425818;41;20509;-76
2021/07/11 22:05:37;;;;;;;204.65;3.67;;;;;;;;;;1429346;41;20095;-76
2021/07/11 22:06:40;;;;;;;155.13;3.58;;;;;;;;;;1432227;41;20052;-76
2021/07/11 22:07:40;;;;;;;53.97;2.25;;;;;;;;;;1429625;41;20356;-76
2021/07/11 22:08:41;;;;;;;225.35;4.07;;;;;;;;;;1427645;41;20135;-74
2021/07/11 22:09:42;;;;;;;148.63;3.03;;;;;;;;;;1431108;41;20703;-75
2021/07/11 22:10:43;;;;;;;101.95;2.55;;;;;;;;;;1424270;41;20059;-74
2021/07/11 22:11:43;;;;;;;53.85;1.95;;;;;;;;;;1426481;41;20076;-76
2021/07/11 22:12:44;;;;;;;97.47;2.65;;;;;;;;;;1431533;41;20073;-75
2021/07/11 22:13:45;;;;;;;101.05;2.55;;;;;;;;;;1432030;41;20041;-76
2021/07/11 22:14:45;;;;;;;50.90;2.05;;;;;;;;;;1425901;41;20035;-77
2021/07/11 22:15:46;;;;;;;191.02;4.22;;;;;;;;;;1424656;41;20105;-76
2021/07/11 22:16:47;;;;;;;154.93;3.38;;;;;;;;;;1425202;41;20047;-78
2021/07/11 22:17:47;;;;;;;151.20;3.40;;;;;;;;;;1431319;41;20046;-75
2021/07/11 22:18:48;;;;;;;141.43;3.08;;;;;;;;;;1433688;41;20042;-75
2021/07/11 22:19:48;;;;;;;289.42;5.93;;;;;;;;;;1433115;41;20037;-75
2021/07/11 22:20:49;;;;;;;293.27;5.20;;;;;;;;;;1436610;41;20672;-78
2021/07/11 22:21:49;;;;;;;580.47;10.27;;;;;;;;;;1437778;41;20041;-76
2021/07/11 22:22:50;;;;;;;535.47;9.05;;;;;;;;;;1433689;41;20258;-76
2021/07/11 22:23:54;;;;;;;391.95;7.85;;;;;;;;;;1436570;41;20056;-76
2021/07/11 22:24:54;;;;;;;573.45;11.18;;;;;;;;;;1436741;41;20272;-76
2021/07/11 22:25:55;;;;;;;503.03;9.37;;;;;;;;;;1436922;41;20332;-76
2021/07/11 22:26:55;;;;;;;711.17;13.75;;;;;;;;;;1437900;41;20325;-76
2021/07/11 22:27:56;;;;;;;627.88;11.20;;;;;;;;;;1433946;41;20038;-76
2021/07/11 22:28:56;;;;;;;464.83;8.27;;;;;;;;;;1435518;41;20074;-76
2021/07/11 22:29:57;;;;;;;516.57;9.37;;;;;;;;;;1436213;41;20298;-76
2021/07/11 22:30:58;;;;;;;212.95;4.60;;;;;;;;;;1432983;41;20354;-76
2021/07/11 22:31:59;;;;;;;256.85;5.10;;;;;;;;;;1433210;41;20034;-76
2021/07/11 22:33:00;;;;;;;132.55;3.67;;;;;;;;;;1435242;41;20053;-77
2021/07/11 22:34:00;;;;;;;92.22;3.10;;;;;;;;;;1434619;41;20200;-76
2021/07/11 22:35:01;;;;;;;140.15;3.25;;;;;;;;;;1429824;41;20039;-76
2021/07/11 22:36:02;;;;;;;182.77;4.53;;;;;;;;;;1432435;41;20159;-76
2021/07/11 22:37:03;;;;;;;332.10;7.25;;;;;;;;;;1434416;41;20061;-77
2021/07/11 22:38:04;;;;;;;73.07;2.55;;;;;;;;;;1437758;41;20102;-75
2021/07/11 22:39:05;;;;;;;11.32;1.35;;;;;;;;;;1437677;41;20450;-76
2021/07/11 22:40:09;;;;;;;53.78;2.10;;;;;;;;;;1436848;41;20614;-76
2021/07/11 22:41:10;;;;;;;18.80;1.58;;;;;;;;;;1432391;41;20186;-76
2021/07/11 22:42:10;;;;;;;33.03;1.70;;;;;;;;;;1438936;41;20426;-76
2021/07/11 22:43:11;;;;;;;147.95;3.58;;;;;;;;;;1434730;41;20138;-77
2021/07/11 22:44:11;;;;;;;48.47;1.67;;;;;;;;;;1438276;41;20150;-77
2021/07/11 22:45:12;;;;;;;40.03;2.28;;;;;;;;;;1439781;41;20517;-77
2021/07/11 22:46:13;;;;;;;8.20;0.93;;;;;;;;;;1448464;40;20087;-76
2021/07/11 22:47:14;;;;;;;27.42;1.45;;;;;;;;;;1445001;41;20053;-77
2021/07/11 22:48:15;;;;;;;15.60;1.30;;;;;;;;;;1445541;41;20041;-75
2021/07/11 22:49:28;;;;;;;8.73;1.40;;;;;;;;;;1445663;41;20113;-77
2021/07/11 22:50:29;;;;;;;3.55;1.50;;;;;;;;;;1436119;41;20122;-78
2021/07/11 22:51:30;;;;;;;1.30;1.20;;;;;;;;;;1438030;41;20045;-75
2021/07/11 22:52:30;;;;;;;9.32;1.55;;;;;;;;;;1439129;41;20291;-77
2021/07/11 22:53:31;;;;;;;10.57;1.50;;;;;;;;;;1438173;41;20033;-76
2021/07/11 22:54:31;;;;;;;6.93;1.10;;;;;;;;;;1436442;41;20041;-76
2021/07/11 22:55:32;;;;;;;5.57;1.20;;;;;;;;;;1440570;41;20440;-76
2021/07/11 22:56:33;;;;;;;1.27;1.17;;;;;;;;;;1440567;41;20695;-75
2021/07/11 22:57:34;;;;;;;1.83;1.05;;;;;;;;;;1440810;41;20134;-75
2021/07/11 22:58:34;;;;;;;2.63;1.20;;;;;;;;;;1441196;41;20041;-77
2021/07/11 22:59:35;;;;;;;4.50;1.30;;;;;;;;;;1445619;41;20528;-76
2021/07/11 23:00:39;;;;;;;2.05;1.10;;;;;;;;;;1445143;41;20196;-76
2021/07/11 23:01:40;;;;;;;5.93;1.52;;;;;;;;;;1445649;41;20121;-76
2021/07/11 23:02:41;;;;;;;1.25;1.10;;;;;;;;;;1446140;41;20311;-77
2021/07/11 23:03:41;;;;;;;2.45;1.15;;;;;;;;;;1445318;41;20149;-76
2021/07/11 23:04:42;;;;;;;5.07;1.10;;;;;;;;;;1441157;41;20045;-76
2021/07/11 23:05:42;;;;;;;44.13;2.50;;;;;;;;;;1436944;41;20835;-75
2021/07/11 23:06:43;;;;;;;47.28;2.55;;;;;;;;;;1441473;41;20770;-76
2021/07/11 23:07:44;;;;;;;3.45;1.23;;;;;;;;;;1441041;41;20053;-75
2021/07/11 23:08:44;;;;;;;1.20;1.10;;;;;;;;;;1437433;41;20045;-74
2021/07/11 23:09:45;;;;;;;3.17;1.10;;;;;;;;;;1437416;41;20029;-76
2021/07/11 23:10:45;;;;;;;1.67;1.00;;;;;;;;;;1444643;41;20898;-75
2021/07/11 23:11:48;;;;;;;2.03;0.93;;;;;;;;;;1445135;41;20285;-74
2021/07/11 23:12:48;;;;;;;4.90;1.30;;;;;;;;;;1444964;41;20043;-74
2021/07/11 23:13:49;;;;;;;1.73;1.40;;;;;;;;;;1445280;41;20163;-75
2021/07/11 23:14:49;;;;;;;3.95;1.20;;;;;;;;;;1445693;41;20037;-75
2021/07/11 23:15:50;;;;;;;2.63;1.13;;;;;;;;;;1449215;41;20051;-76
2021/07/11 23:16:50;;;;;;;1.00;1.00;;;;;;;;;;1444616;41;20288;-75
2021/07/11 23:17:52;;;;;;;1.85;0.80;;;;;;;;;;1442237;41;20029;-76
2021/07/11 23:18:53;;;;;;;3.85;1.10;;;;;;;;;;1451575;40;20028;-76
2021/07/11 23:19:54;;;;;;;5.18;1.20;;;;;;;;;;1452700;40;20023;-76
2021/07/11 23:20:54;;;;;;;3.85;1.20;;;;;;;;;;1449179;41;20039;-76
2021/07/11 23:21:55;;;;;;;7.00;1.35;;;;;;;;;;1450251;40;20490;-76
2021/07/11 23:22:56;;;;;;;7.93;1.20;;;;;;;;;;1452820;40;20091;-76
2021/07/11 23:23:56;;;;;;;55.70;2.05;;;;;;;;;;1449804;40;20280;-77
2021/07/11 23:24:57;;;;;;;159.80;4.00;;;;;;;;;;1448473;41;20206;-76
2021/07/11 23:25:58;;;;;;;194.63;4.55;;;;;;;;;;1446921;41;20084;-74
2021/07/11 23:26:58;;;;;;;221.07;4.63;;;;;;;;;;1443088;41;20812;-76
2021/07/11 23:27:59;;;;;;;308.80;9.25;;;;;;;;;;1441987;41;20094;-76
2021/07/11 23:29:00;;;;;;;334.02;7.22;;;;;;;;;;1440638;41;20034;-75
2021/07/11 23:30:01;;;;;;;443.73;7.72;;;;;;;;;;1441285;41;20055;-76
2021/07/11 23:31:01;;;;;;;325.25;6.45;;;;;;;;;;1445376;41;20040;-74
2021/07/11 23:32:02;;;;;;;438.40;8.00;;;;;;;;;;1444231;41;20047;-76
2021/07/11 23:33:02;;;;;;;361.70;7.22;;;;;;;;;;1441792;41;20057;-76
2021/07/11 23:34:03;;;;;;;306.80;5.93;;;;;;;;;;1445003;41;20446;-75
2021/07/11 23:35:05;;;;;;;133.35;3.00;;;;;;;;;;1448505;40;20051;-76
2021/07/11 23:36:06;;;;;;;153.13;3.10;;;;;;;;;;1443259;40;20475;-73
2021/07/11 23:37:06;;;;;;;328.88;5.65;;;;;;;;;;1455103;40;20043;-73
2021/07/11 23:38:07;;;;;;;380.08;6.47;;;;;;;;;;1450510;40;20521;-75
2021/07/11 23:39:07;;;;;;;90.47;2.92;;;;;;;;;;1453806;40;20054;-75
2021/07/11 23:40:09;;;;;;;310.80;5.70;;;;;;;;;;1456970;40;20031;-75
2021/07/11 23:41:09;;;;;;;271.33;5.18;;;;;;;;;;1454014;40;20031;-76
2021/07/11 23:42:10;;;;;;;296.83;5.05;;;;;;;;;;1456929;40;20153;-75
2021/07/11 23:43:10;;;;;;;304.40;4.63;;;;;;;;;;1457744;40;20081;-76
2021/07/11 23:44:11;;;;;;;356.25;5.70;;;;;;;;;;1459452;40;20098;-76
2021/07/11 23:45:12;;;;;;;343.60;6.20;;;;;;;;;;1460703;40;20039;-74
2021/07/11 23:46:12;;;;;;;527.70;9.32;;;;;;;;;;1457136;40;20047;-77
2021/07/11 23:47:13;;;;;;;345.65;5.53;;;;;;;;;;1453935;40;20052;-74
2021/07/11 23:48:13;;;;;;;281.98;4.35;;;;;;;;;;1446516;40;20040;-77
2021/07/11 23:49:14;;;;;;;336.27;5.38;;;;;;;;;;1453176;40;20110;-75
2021/07/11 23:50:27;;;;;;;338.83;5.53;;;;;;;;;;1445391;40;20070;-74
2021/07/11 23:51:27;;;;;;;351.60;5.80;;;;;;;;;;1441138;41;20242;-76
2021/07/11 23:52:28;;;;;;;265.45;4.43;;;;;;;;;;1442059;41;20277;-74
2021/07/11 23:53:28;;;;;;;232.07;4.47;;;;;;;;;;1449402;40;20036;-75
2021/07/11 23:54:29;;;;;;;282.52;4.35;;;;;;;;;;1452543;40;20544;-75
2021/07/11 23:55:29;;;;;;;186.57;4.03;;;;;;;;;;1448843;40;20165;-75
2021/07/11 23:56:30;;;;;;;199.15;4.13;;;;;;;;;;1450030;40;20311;-76
2021/07/11 23:57:30;;;;;;;353.77;6.00;;;;;;;;;;1450049;40;20024;-75
2021/07/11 23:58:31;;;;;;;457.73;7.38;;;;;;;;;;1450454;40;20154;-76
2021/07/11 23:59:32;;;;;;;269.33;5.05;;;;;;;;;;1449708;40;20036;-77
